Time;durP1;ratioP1;P1;durP2;ratioP2;P2;SDS_P1;SDS_P2;PMS_P1;PMS_P2;Temp;Humidity;BMP_temperature;BMP_pressure;BME280_temperature;BME280_humidity;BME280_pressure;Samples;Min_cycle;Max_cycle;Signal;HPM_P1;HPM_P2
2021/11/18 00:00:41;;;;;;;847.30;792.75;;;;;;;19.51;49.78;101487.38;5065482;28;20040;-35
2021/11/18 00:03:08;;;;;;;845.00;790.72;;;;;;;19.51;49.73;101487.38;5054227;28;20231;-35
2021/11/18 00:05:34;;;;;;;825.53;772.90;;;;;;;19.50;50.06;101501.66;5055908;28;20108;-35
2021/11/18 00:08:01;;;;;;;844.47;790.55;;;;;;;19.50;49.65;101499.00;5053241;28;20021;-35
2021/11/18 00:10:53;;;;;;;850.67;796.33;;;;;;;19.36;49.58;101485.06;5053131;28;20033;-35
2021/11/18 00:13:22;;;;;;;826.28;774.30;;;;;;;19.46;49.65;101494.94;5046604;28;20032;-35
2021/11/18 00:15:49;;;;;;;844.50;790.40;;;;;;;19.49;49.53;101506.16;5039184;28;20038;-35
2021/11/18 00:18:17;;;;;;;839.63;785.55;;;;;;;19.49;49.45;101503.50;5036245;28;20021;-35
2021/11/18 00:20:46;;;;;;;835.28;782.03;;;;;;;19.48;49.92;101504.47;5052183;28;20035;-35
2021/11/18 00:23:12;;;;;;;842.15;789.55;;;;;;;19.46;49.52;101494.94;5054386;28;20104;-35
2021/11/18 00:25:39;;;;;;;864.72;809.47;;;;;;;19.49;49.46;101497.31;5056558;28;20083;-35
2021/11/18 00:28:05;;;;;;;859.15;803.35;;;;;;;19.47;49.53;101493.94;5054853;28;20413;-35
2021/11/18 00:30:31;;;;;;;839.95;786.13;;;;;;;19.50;49.56;101504.34;5049971;28;20439;-35
2021/11/18 00:32:58;;;;;;;865.80;810.20;;;;;;;19.48;49.82;101500.97;5045025;28;20373;-35
2021/11/18 00:35:26;;;;;;;864.53;809.20;;;;;;;19.37;49.38;101486.72;5048220;28;20025;-35
2021/11/18 00:37:52;;;;;;;854.38;799.85;;;;;;;19.50;49.74;101499.84;5054558;28;20024;-35
2021/11/18 00:40:21;;;;;;;838.67;784.97;;;;;;;19.46;49.38;101502.91;5053911;28;20082;-35
2021/11/18 00:42:47;;;;;;;838.67;785.22;;;;;;;19.48;49.57;101507.13;5055095;28;20139;-35
2021/11/18 00:45:13;;;;;;;835.75;781.95;;;;;;;19.36;49.29;101487.72;5052416;28;20032;-35
2021/11/18 00:47:40;;;;;;;851.13;797.00;;;;;;;19.48;49.13;101512.44;5058180;28;20017;-35
2021/11/18 00:50:06;;;;;;;867.95;813.15;;;;;;;19.47;49.48;101512.59;5046713;28;20031;-35
2021/11/18 00:52:33;;;;;;;847.33;792.75;;;;;;;19.49;49.43;101497.31;5055027;28;20078;-35
2021/11/18 00:54:59;;;;;;;878.80;822.20;;;;;;;19.47;49.58;101502.78;5055856;28;20096;-35
2021/11/18 00:57:25;;;;;;;861.13;806.20;;;;;;;19.47;49.58;101507.25;5050765;28;20028;-35
2021/11/18 00:59:51;;;;;;;824.50;771.58;;;;;;;19.47;49.25;101509.91;5049281;28;20100;-35
2021/11/18 01:02:17;;;;;;;835.25;782.50;;;;;;;19.50;49.52;101509.66;5069392;28;20386;-35
2021/11/18 01:04:44;;;;;;;850.78;796.67;;;;;;;19.31;49.35;101489.94;5054559;28;20412;-35
2021/11/18 01:07:11;;;;;;;884.83;823.38;;;;;;;19.32;47.64;101523.56;5052986;28;20021;-35
2021/11/18 01:09:37;;;;;;;866.65;810.50;;;;;;;19.09;45.56;101517.50;5051550;28;20087;-35
2021/11/18 01:12:06;;;;;;;846.40;792.75;;;;;;;19.11;45.49;101510.22;5048821;28;20041;-35
2021/11/18 01:14:33;;;;;;;903.83;846.33;;;;;;;19.25;45.86;101511.75;5052469;28;20024;-36
2021/11/18 01:16:59;;;;;;;853.13;799.28;;;;;;;19.32;46.70;101522.72;5065738;28;20021;-35
2021/11/18 01:19:26;;;;;;;857.08;803.25;;;;;;;19.19;46.99;101501.63;5060693;28;20079;-36
2021/11/18 01:21:52;;;;;;;844.60;790.67;;;;;;;19.34;46.64;101520.78;5074119;28;20479;-35
2021/11/18 01:24:18;;;;;;;863.92;809.30;;;;;;;19.24;46.90;101506.53;5049101;28;20037;-35
2021/11/18 01:26:44;;;;;;;866.53;811.47;;;;;;;19.26;46.84;101509.91;5056921;28;20058;-35
2021/11/18 01:29:10;;;;;;;867.13;812.15;;;;;;;19.38;46.95;101524.84;5069930;28;20029;-35
2021/11/18 01:31:37;;;;;;;843.88;790.00;;;;;;;19.37;47.22;101529.34;5049250;28;20029;-36
2021/11/18 01:34:03;;;;;;;889.53;832.17;;;;;;;19.35;47.39;101531.31;5062890;28;20028;-36
2021/11/18 01:36:29;;;;;;;917.38;857.88;;;;;;;19.34;47.53;101531.44;5049412;28;20033;-36
2021/11/18 01:38:55;;;;;;;922.13;862.65;;;;;;;19.25;47.81;101513.56;5055978;28;20055;-35
2021/11/18 01:41:24;;;;;;;881.20;824.63;;;;;;;19.33;47.68;101530.59;5043983;28;20024;-35
2021/11/18 01:43:52;;;;;;;876.95;820.63;;;;;;;19.33;47.47;101535.91;5051602;28;20050;-35
2021/11/18 01:46:49;;;;;;;875.88;820.20;;;;;;;19.06;47.55;101487.63;5052744;28;20044;-36
2021/11/18 01:49:15;;;;;;;842.50;789.75;;;;;;;19.34;47.36;101534.09;5061849;28;20063;-35
2021/11/18 01:51:44;;;;;;;814.22;763.55;;;;;;;19.31;47.66;101542.31;5048333;28;20123;-36
2021/11/18 01:54:12;;;;;;;821.25;769.53;;;;;;;19.34;47.46;101542.91;5050209;28;20048;-35
2021/11/18 01:56:38;;;;;;;850.70;796.58;;;;;;;19.36;47.48;101548.13;5068871;28;20370;-35
2021/11/18 01:59:15;;;;;;;862.08;807.20;;;;;;;19.12;47.84;101508.44;5051891;28;20025;-35
2021/11/18 02:01:42;;;;;;;893.60;836.85;;;;;;;19.35;47.55;101539.28;5066809;28;20023;-35
2021/11/18 02:04:13;;;;;;;856.20;801.75;;;;;;;19.08;47.89;101507.84;5053541;28;20048;-35
2021/11/18 02:06:49;;;;;;;937.97;877.35;;;;;;;19.34;47.57;101542.06;5058452;28;20029;-35
2021/11/18 02:09:18;;;;;;;831.63;779.20;;;;;;;19.23;47.66;101534.16;5047624;28;20415;-35
2021/11/18 02:12:23;;;;;;;846.63;792.28;;;;;;;19.36;47.49;101553.44;5034819;28;20117;-35
2021/11/18 02:14:50;;;;;;;832.67;780.15;;;;;;;19.36;47.16;101548.13;5046984;28;20059;-36
2021/11/18 02:17:17;;;;;;;846.45;792.80;;;;;;;19.37;47.00;101550.66;5052439;28;20020;-35
2021/11/18 02:19:48;;;;;;;849.75;796.75;;;;;;;19.10;47.27;101515.72;5054571;28;20028;-35
2021/11/18 02:22:15;;;;;;;827.53;775.05;;;;;;;19.35;47.19;101557.09;5048569;28;20029;-35
2021/11/18 02:24:44;;;;;;;881.33;825.30;;;;;;;19.24;47.29;101551.81;5053934;28;20029;-35
2021/11/18 02:27:11;;;;;;;880.92;824.67;;;;;;;19.18;47.49;101537.19;5053279;28;20024;-35
2021/11/18 02:29:38;;;;;;;892.75;835.47;;;;;;;19.31;47.68;101568.97;5053502;28;20049;-35
2021/11/18 02:32:08;;;;;;;878.05;821.60;;;;;;;19.30;47.39;101570.78;5037047;28;20025;-35
2021/11/18 02:34:44;;;;;;;844.50;791.60;;;;;;;19.23;46.91;101556.28;5052391;28;20029;-35
2021/11/18 02:37:11;;;;;;;836.10;783.42;;;;;;;19.32;46.87;101579.50;5050321;28;20730;-35
2021/11/18 02:39:37;;;;;;;839.17;786.17;;;;;;;19.30;47.04;101584.09;5066634;28;20474;-35
2021/11/18 02:42:04;;;;;;;885.05;828.25;;;;;;;19.29;46.72;101574.44;5046996;28;20025;-35
2021/11/18 02:44:32;;;;;;;840.38;787.45;;;;;;;19.26;47.23;101568.50;5049842;28;20029;-35
2021/11/18 02:46:58;;;;;;;882.63;826.28;;;;;;;19.30;47.08;101572.63;5052798;28;20028;-35
2021/11/18 02:49:24;;;;;;;916.13;857.13;;;;;;;19.28;47.36;101579.88;5052786;28;20037;-35
2021/11/18 02:51:51;;;;;;;829.90;777.65;;;;;;;19.29;47.68;101577.09;5052497;28;20435;-35
2021/11/18 02:54:17;;;;;;;842.08;788.88;;;;;;;19.27;47.77;101571.03;5048948;28;20123;-36
2021/11/18 02:56:43;;;;;;;830.47;777.50;;;;;;;19.30;47.93;101573.44;5050953;28;20534;-35
2021/11/18 02:59:09;;;;;;;848.63;795.33;;;;;;;19.25;47.56;101572.97;5042264;28;20064;-36
2021/11/18 03:01:39;;;;;;;856.50;803.30;;;;;;;19.30;47.70;101584.09;5034797;28;20153;-35
2021/11/18 03:04:05;;;;;;;830.22;777.45;;;;;;;19.22;47.54;101572.41;5049159;28;20099;-35
2021/11/18 03:06:31;;;;;;;838.05;785.53;;;;;;;19.17;47.62;101562.16;5041205;28;20435;-35
2021/11/18 03:08:57;;;;;;;841.63;788.63;;;;;;;19.22;47.92;101578.56;5064562;28;20039;-36
2021/11/18 03:11:25;;;;;;;818.13;766.60;;;;;;;19.31;48.16;101585.81;5049254;28;20044;-35
2021/11/18 03:13:53;;;;;;;838.13;785.28;;;;;;;19.31;48.09;101580.47;5046532;28;20024;-35
2021/11/18 03:16:20;;;;;;;836.05;783.72;;;;;;;19.32;48.21;101584.81;5052282;28;20025;-35
2021/11/18 03:18:46;;;;;;;846.78;793.42;;;;;;;19.10;47.86;101545.00;5054350;28;21469;-36
2021/11/18 03:21:15;;;;;;;850.25;795.97;;;;;;;19.07;47.96;101545.25;5047674;28;20439;-35
2021/11/18 03:23:41;;;;;;;839.60;786.78;;;;;;;19.35;47.83;101581.06;5038564;28;20025;-35
2021/11/18 03:26:08;;;;;;;822.30;770.25;;;;;;;19.34;47.66;101593.50;5069991;28;20040;-35
2021/11/18 03:28:34;;;;;;;845.75;792.42;;;;;;;19.34;47.88;101580.19;5052831;28;20032;-35
2021/11/18 03:31:05;;;;;;;835.85;783.28;;;;;;;19.31;47.82;101585.81;5061715;28;20060;-35
2021/11/18 03:33:34;;;;;;;838.63;785.33;;;;;;;19.10;48.00;101552.97;5044520;28;20103;-35
2021/11/18 03:36:01;;;;;;;839.63;785.97;;;;;;;19.33;48.15;101586.53;5055385;28;20033;-35
2021/11/18 03:38:28;;;;;;;847.47;793.20;;;;;;;19.34;47.83;101590.03;5052339;28;20463;-35
2021/11/18 03:41:02;;;;;;;835.50;782.83;;;;;;;19.35;47.91;101589.06;5046847;28;20146;-35
2021/11/18 03:43:28;;;;;;;854.58;799.92;;;;;;;19.35;47.44;101587.22;5053396;28;20031;-35
2021/11/18 03:45:54;;;;;;;846.65;792.53;;;;;;;19.37;47.15;101579.97;5066662;28;20025;-35
2021/11/18 03:48:20;;;;;;;854.65;800.13;;;;;;;19.36;47.71;101582.75;5054660;28;20020;-35
2021/11/18 03:50:49;;;;;;;842.55;789.30;;;;;;;19.32;47.57;101583.97;5066207;28;20036;-35
2021/11/18 03:53:16;;;;;;;833.20;780.80;;;;;;;19.36;47.44;101577.41;5051442;28;20414;-35
2021/11/18 03:55:43;;;;;;;874.03;817.70;;;;;;;19.16;47.59;101549.78;5054879;28;20033;-35
2021/11/18 03:58:09;;;;;;;883.35;826.92;;;;;;;19.33;47.31;101588.34;5070121;28;20029;-35
2021/11/18 04:00:36;;;;;;;879.50;823.58;;;;;;;19.05;47.67;101544.53;5050925;28;20892;-35
2021/11/18 04:03:03;;;;;;;859.08;805.35;;;;;;;19.31;47.71;101585.81;5069503;28;20035;-35
2021/11/18 04:05:29;;;;;;;863.70;808.92;;;;;;;19.20;47.69;101561.88;5053508;28;20373;-35
2021/11/18 04:07:55;;;;;;;866.83;812.55;;;;;;;19.31;47.31;101583.16;5055548;28;20113;-35
2021/11/18 04:10:24;;;;;;;833.22;781.08;;;;;;;19.23;47.73;101577.59;5049399;28;20028;-35
2021/11/18 04:12:50;;;;;;;863.03;809.00;;;;;;;19.30;47.86;101600.09;5068353;28;20028;-34
2021/11/18 04:15:16;;;;;;;888.38;832.17;;;;;;;19.25;47.42;101577.47;5054297;28;20144;-35
2021/11/18 04:17:43;;;;;;;927.08;866.88;;;;;;;19.25;47.38;101580.13;5063969;28;20505;-35
2021/11/18 04:20:10;;;;;;;947.08;884.17;;;;;;;19.24;47.73;101583.75;5049330;28;20025;-35
2021/11/18 04:22:36;;;;;;;909.92;852.08;;;;;;;19.20;47.74;101580.50;5054155;28;20328;-35
2021/11/18 04:25:04;;;;;;;935.28;873.85;;;;;;;19.19;47.93;101576.16;5055092;28;20074;-35
2021/11/18 04:27:30;;;;;;;911.45;852.67;;;;;;;19.07;47.68;101555.88;5068761;28;20024;-35
2021/11/18 04:29:56;;;;;;;884.25;828.55;;;;;;;19.11;47.60;101574.13;5061916;28;20026;-35
2021/11/18 04:32:25;;;;;;;879.67;824.15;;;;;;;19.19;47.49;101579.66;5048558;28;20025;-35
2021/11/18 04:34:51;;;;;;;870.55;814.92;;;;;;;19.04;47.76;101562.28;5056771;28;20108;-35
2021/11/18 04:37:18;;;;;;;933.92;872.75;;;;;;;19.08;47.48;101576.19;5053576;28;20070;-35
2021/11/18 04:39:44;;;;;;;913.00;854.58;;;;;;;19.16;47.57;101595.88;5055078;28;20055;-35
2021/11/18 04:42:11;;;;;;;893.45;837.10;;;;;;;19.14;47.57;101597.00;5064206;28;20028;-35
2021/11/18 04:44:37;;;;;;;881.80;825.35;;;;;;;19.08;47.79;101585.06;5051135;28;20029;-35
2021/11/18 04:47:07;;;;;;;883.88;828.60;;;;;;;19.08;47.97;101602.81;5039997;28;20443;-35
2021/11/18 04:49:34;;;;;;;857.20;803.55;;;;;;;19.02;47.87;101601.50;5051664;28;20029;-36
2021/11/18 04:52:00;;;;;;;933.65;872.90;;;;;;;19.10;47.95;101606.22;5053808;28;20029;-35
2021/11/18 04:54:26;;;;;;;901.03;844.17;;;;;;;19.10;47.61;101608.88;5052871;28;20029;-35
2021/11/18 04:56:53;;;;;;;954.30;892.08;;;;;;;19.09;47.56;101609.84;5054129;28;20350;-35
2021/11/18 04:59:19;;;;;;;888.75;832.17;;;;;;;19.11;47.39;101621.22;5055361;28;20036;-35
2021/11/18 05:01:45;;;;;;;850.28;796.40;;;;;;;19.11;47.46;101626.53;5057378;28;20082;-35
2021/11/18 05:04:11;;;;;;;894.70;838.25;;;;;;;18.95;47.39;101619.78;5064108;28;20464;-35
2021/11/18 05:06:38;;;;;;;927.30;867.00;;;;;;;19.06;47.53;101636.72;5074469;28;20123;-35
2021/11/18 05:09:06;;;;;;;878.20;822.28;;;;;;;19.03;47.52;101636.94;5053168;28;20074;-35
2021/11/18 05:11:32;;;;;;;815.00;763.30;;;;;;;19.00;47.68;101636.22;5053720;28;20029;-35
2021/11/18 05:13:58;;;;;;;889.60;832.83;;;;;;;18.98;47.51;101640.84;5054420;28;20091;-35
2021/11/18 05:16:24;;;;;;;868.03;813.20;;;;;;;19.00;47.44;101648.72;5055076;28;20029;-35
2021/11/18 05:18:51;;;;;;;907.20;849.13;;;;;;;18.98;47.40;101637.34;5050438;28;20021;-35
2021/11/18 05:21:22;;;;;;;930.90;870.83;;;;;;;18.92;47.41;101638.69;5054210;28;20033;-35
2021/11/18 05:23:48;;;;;;;850.03;796.63;;;;;;;18.69;47.54;101607.72;5065840;28;20025;-35
2021/11/18 05:26:19;;;;;;;926.78;866.55;;;;;;;19.01;47.09;101663.72;5033016;28;20021;-35
2021/11/18 05:28:45;;;;;;;850.00;796.35;;;;;;;18.97;47.27;101662.25;5045367;28;20051;-35
2021/11/18 05:31:12;;;;;;;894.50;837.97;;;;;;;18.22;47.38;101565.31;5042946;28;20489;-35
2021/11/18 05:33:38;;;;;;;889.53;832.45;;;;;;;18.86;47.74;101663.13;5049878;28;20029;-35
2021/11/18 05:36:05;;;;;;;857.95;802.85;;;;;;;18.91;47.49;101670.75;5063451;28;20029;-35
2021/11/18 05:38:31;;;;;;;858.92;804.30;;;;;;;18.92;47.30;101681.28;5050410;28;20036;-35
2021/11/18 05:40:57;;;;;;;865.90;811.80;;;;;;;18.91;47.69;101679.56;5036864;28;20016;-35
2021/11/18 05:43:24;;;;;;;881.20;824.53;;;;;;;18.91;47.72;101679.56;5053655;28;20036;-35
2021/11/18 05:45:50;;;;;;;858.95;804.65;;;;;;;18.92;47.58;101686.59;5043887;28;20025;-35
2021/11/18 05:48:17;;;;;;;904.55;845.67;;;;;;;18.91;47.31;101678.72;5053922;28;20021;-35
2021/11/18 05:50:50;;;;;;;922.92;863.30;;;;;;;18.91;47.28;101692.88;5050963;28;20021;-35
2021/11/18 05:53:21;;;;;;;850.13;796.58;;;;;;;18.90;47.17;101693.88;5068859;28;20419;-35
2021/11/18 05:55:47;;;;;;;870.15;815.17;;;;;;;18.87;47.59;101683.47;5051073;28;20037;-35
2021/11/18 05:58:13;;;;;;;943.15;878.92;;;;;;;18.86;47.56;101687.06;5049094;28;20064;-35
2021/11/18 06:00:40;;;;;;;889.33;831.08;;;;;;;18.84;47.69;101688.19;5047609;28;20359;-35
2021/11/18 06:03:06;;;;;;;846.15;792.55;;;;;;;18.75;47.66;101685.25;5047931;28;20020;-35
2021/11/18 06:05:32;;;;;;;843.92;790.20;;;;;;;18.83;47.34;101689.13;5052686;28;20051;-35
2021/11/18 06:07:59;;;;;;;880.25;825.00;;;;;;;18.85;47.54;101685.41;5053494;28;20028;-35
2021/11/18 06:10:27;;;;;;;904.40;841.72;;;;;;;18.83;47.72;101687.31;5050169;28;20033;-35
2021/11/18 06:12:53;;;;;;;850.95;797.72;;;;;;;18.84;47.17;101682.84;5051872;28;20049;-34
2021/11/18 06:15:20;;;;;;;870.53;816.20;;;;;;;18.86;47.30;101694.22;5052956;28;20037;-35
2021/11/18 06:17:46;;;;;;;835.42;778.40;;;;;;;18.37;46.19;101673.16;5048953;28;20059;-35
2021/11/18 06:20:13;;;;;;;828.85;763.08;;;;;;;18.08;46.10;101690.50;5050720;28;20032;-36
2021/11/18 06:22:39;;;;;;;869.47;809.03;;;;;;;17.53;46.98;101692.78;5054544;28;20025;-35
2021/11/18 06:25:06;;;;;;;818.67;763.95;;;;;;;17.60;46.71;101675.44;5031498;28;20029;-35
2021/11/18 06:27:34;;;;;;;844.72;790.22;;;;;;;17.69;47.00;101677.41;5053067;28;20025;-36
2021/11/18 06:30:00;;;;;;;842.22;785.47;;;;;;;17.86;46.95;101682.34;5054153;28;20059;-36
2021/11/18 06:32:26;;;;;;;862.95;807.05;;;;;;;17.98;46.98;101685.88;5050041;28;20026;-35
2021/11/18 06:34:53;;;;;;;916.17;857.50;;;;;;;18.10;46.77;101681.41;5050844;28;20028;-35
2021/11/18 06:37:19;;;;;;;893.75;835.33;;;;;;;18.15;46.80;101681.09;5054207;28;20025;-35
2021/11/18 06:39:45;;;;;;;816.88;764.80;;;;;;;18.20;46.87;101663.81;5054227;28;20082;-35
2021/11/18 06:42:11;;;;;;;935.42;866.83;;;;;;;18.25;46.65;101671.44;5053832;28;20028;-35
2021/11/18 06:44:38;;;;;;;1017.30;941.90;;;;;;;18.28;46.61;101679.19;5058271;28;20039;-35
2021/11/18 06:47:05;;;;;;;827.70;775.08;;;;;;;18.25;47.19;101682.06;5056806;28;20111;-35
2021/11/18 06:49:31;;;;;;;879.22;822.78;;;;;;;18.06;47.09;101645.41;5058072;28;20021;-35
2021/11/18 06:51:57;;;;;;;856.55;802.45;;;;;;;17.97;47.10;101627.53;5073590;28;20032;-35
2021/11/18 06:54:23;;;;;;;853.10;798.97;;;;;;;18.19;47.14;101664.78;5040809;28;20088;-35
2021/11/18 06:56:50;;;;;;;845.17;792.30;;;;;;;18.13;47.27;101659.09;5056493;28;20032;-35
2021/11/18 06:59:16;;;;;;;1061.55;984.17;;;;;;;18.33;46.97;101684.13;5056391;28;20401;-35
2021/11/18 07:01:42;;;;;;;903.20;845.53;;;;;;;18.35;46.85;101691.03;5061365;28;20021;-35
2021/11/18 07:04:09;;;;;;;899.88;841.58;;;;;;;18.36;46.89;101684.75;5067737;28;20105;-35
2021/11/18 07:06:36;;;;;;;904.88;848.40;;;;;;;18.22;46.97;101653.06;5073804;28;20645;-35
2021/11/18 07:09:06;;;;;;;827.15;775.28;;;;;;;18.34;47.05;101680.53;5054435;28;20028;-35
2021/11/18 07:11:32;;;;;;;949.60;887.10;;;;;;;18.35;46.91;101688.38;5055900;28;20032;-35
2021/11/18 07:13:59;;;;;;;1002.80;931.58;;;;;;;18.31;47.30;101681.59;5056844;28;20017;-35
2021/11/18 07:16:25;;;;;;;885.20;829.85;;;;;;;18.32;47.39;101690.44;5055985;28;20166;-35
2021/11/18 07:18:51;;;;;;;827.25;775.22;;;;;;;18.32;47.11;101687.78;5056399;28;20051;-35
2021/11/18 07:21:18;;;;;;;839.10;786.00;;;;;;;18.26;47.35;101677.59;5072265;28;20035;-35
2021/11/18 07:23:44;;;;;;;969.72;904.65;;;;;;;18.20;47.38;101660.31;5056861;28;20389;-35
2021/11/18 07:26:11;;;;;;;875.95;820.72;;;;;;;18.34;47.16;101680.53;5058020;28;20025;-35
2021/11/18 07:28:37;;;;;;;888.10;832.05;;;;;;;18.28;47.37;101676.53;5057090;28;20099;-35
2021/11/18 07:31:04;;;;;;;856.15;802.42;;;;;;;18.33;47.03;101684.97;5077601;28;20087;-35
2021/11/18 07:33:31;;;;;;;937.05;867.58;;;;;;;18.32;47.50;101701.91;5055342;28;20387;-35
2021/11/18 07:35:57;;;;;;;846.60;793.08;;;;;;;18.22;47.34;101695.59;5067278;28;20127;-35
2021/11/18 07:38:25;;;;;;;865.83;811.10;;;;;;;18.26;47.41;101701.53;5053941;28;20017;-35
2021/11/18 07:40:51;;;;;;;885.60;829.08;;;;;;;18.28;47.64;101705.78;5054789;28;20057;-35
2021/11/18 07:43:20;;;;;;;828.10;776.30;;;;;;;18.28;47.40;101711.09;5055095;28;20119;-35
2021/11/18 07:45:47;;;;;;;826.42;774.58;;;;;;;18.31;47.50;101712.66;5050915;28;20036;-35
2021/11/18 07:48:14;;;;;;;833.20;781.13;;;;;;;18.32;47.46;101714.38;5055338;28;20017;-35
2021/11/18 07:50:41;;;;;;;879.70;824.50;;;;;;;18.30;47.14;101721.59;5052336;28;20097;-35
2021/11/18 07:53:07;;;;;;;824.28;771.33;;;;;;;18.28;47.31;101729.72;5033188;28;20040;-35
2021/11/18 07:55:33;;;;;;;844.20;790.15;;;;;;;18.23;47.55;101715.91;5069651;28;20039;-35
2021/11/18 07:57:59;;;;;;;856.05;801.75;;;;;;;18.24;47.59;101722.91;5051243;28;20033;-35
2021/11/18 08:00:25;;;;;;;866.63;811.22;;;;;;;18.02;47.77;101695.31;5049735;28;20022;-35
2021/11/18 08:02:52;;;;;;;857.60;803.78;;;;;;;18.10;47.43;101715.13;5062267;28;20029;-35
2021/11/18 08:05:18;;;;;;;834.67;783.13;;;;;;;18.20;47.43;101726.78;5052136;28;20079;-35
2021/11/18 08:07:45;;;;;;;841.22;789.17;;;;;;;18.22;47.59;101723.03;5041121;28;20037;-35
2021/11/18 08:10:11;;;;;;;825.53;773.85;;;;;;;18.23;47.60;101707.94;5046143;28;20106;-35
2021/11/18 08:12:38;;;;;;;873.53;818.83;;;;;;;18.19;47.22;101703.81;5050093;28;20111;-35
2021/11/18 08:15:05;;;;;;;838.45;785.45;;;;;;;18.15;47.48;101705.84;5054727;28;20358;-35
2021/11/18 08:17:31;;;;;;;850.97;797.60;;;;;;;18.20;47.64;101708.16;5049755;28;20032;-35
2021/11/18 08:19:58;;;;;;;846.60;792.83;;;;;;;18.17;47.68;101706.56;5046996;28;20025;-35
2021/11/18 08:22:24;;;;;;;878.72;823.28;;;;;;;18.16;47.61;101718.19;5042410;28;20462;-35
2021/11/18 08:24:50;;;;;;;826.97;775.47;;;;;;;18.14;47.79;101722.78;5051546;28;20033;-35
2021/11/18 08:27:16;;;;;;;976.15;881.28;;;;;;;18.11;47.79;101719.50;5046949;28;20026;-35
2021/11/18 08:29:43;;;;;;;817.85;766.70;;;;;;;17.97;47.69;101694.81;5053143;28;20027;-35
2021/11/18 08:32:09;;;;;;;854.17;800.80;;;;;;;18.13;47.53;101702.47;5052613;28;20067;-35
2021/11/18 08:34:35;;;;;;;834.58;782.67;;;;;;;18.15;47.48;101694.38;5047417;28;20352;-35
2021/11/18 08:37:01;;;;;;;838.42;785.80;;;;;;;18.14;47.42;101692.66;5049203;28;20120;-35
2021/11/18 08:39:28;;;;;;;820.30;768.92;;;;;;;18.15;47.48;101694.38;5050462;28;20021;-35
2021/11/18 08:41:58;;;;;;;821.20;769.38;;;;;;;18.05;47.45;101683.63;5071475;28;20025;-35
2021/11/18 08:44:25;;;;;;;844.05;790.92;;;;;;;18.00;47.66;101667.16;5055610;28;20032;-35
2021/11/18 08:46:52;;;;;;;821.45;770.08;;;;;;;18.07;47.88;101687.00;5053491;28;20033;-35
2021/11/18 08:49:18;;;;;;;824.42;772.45;;;;;;;18.07;47.65;101687.00;5053843;28;20028;-35
2021/11/18 08:51:45;;;;;;;861.25;807.90;;;;;;;18.04;47.83;101673.94;5047420;28;20036;-35
2021/11/18 08:54:14;;;;;;;839.38;786.85;;;;;;;17.97;47.71;101662.06;5054682;28;20491;-35
2021/11/18 08:56:40;;;;;;;844.92;792.00;;;;;;;18.06;47.62;101672.00;5070061;28;20032;-35
2021/11/18 08:59:07;;;;;;;813.50;762.83;;;;;;;18.04;47.66;101677.44;5054504;28;20048;-35
2021/11/18 09:01:39;;;;;;;818.63;767.83;;;;;;;18.07;47.61;101663.06;5061116;28;20114;-35
2021/11/18 09:04:06;;;;;;;;;;;;;;;18.23;47.11;101658.25;5051166;28;20055;-35
2021/11/18 09:06:32;;;;;;;816.45;766.10;;;;;;;18.00;47.21;101645.91;5054383;28;19916;-35
2021/11/18 09:08:59;;;;;;;837.97;784.83;;;;;;;17.95;47.55;101637.44;5053947;28;20800;-35
2021/11/18 09:11:25;;;;;;;823.60;772.13;;;;;;;17.99;47.63;101645.03;5047596;28;20036;-35
2021/11/18 09:13:52;;;;;;;804.17;753.58;;;;;;;17.98;47.55;101643.34;5051471;28;20036;-35
2021/11/18 09:16:19;;;;;;;846.17;793.03;;;;;;;17.96;47.58;101639.97;5038566;28;20120;-35
2021/11/18 09:18:46;;;;;;;838.42;785.67;;;;;;;17.86;47.77;101629.19;5043072;28;20359;-35
2021/11/18 09:21:14;;;;;;;844.17;790.85;;;;;;;17.91;47.87;101636.81;5065924;28;20020;-35
2021/11/18 09:23:43;;;;;;;833.33;781.50;;;;;;;17.93;47.66;101634.06;5047055;28;20362;-35
2021/11/18 09:26:10;;;;;;;844.10;791.30;;;;;;;17.95;47.79;101624.16;5062645;28;20040;-35
2021/11/18 09:28:36;;;;;;;850.78;797.67;;;;;;;17.98;47.56;101619.44;5035005;28;20508;-35
2021/11/18 09:31:04;;;;;;;839.33;787.08;;;;;;;17.77;47.62;101584.69;5064794;28;20111;-35
2021/11/18 09:33:30;;;;;;;836.05;783.15;;;;;;;17.97;47.43;101628.38;5033833;28;20056;-35
2021/11/18 09:35:59;;;;;;;832.70;781.00;;;;;;;17.89;47.84;101616.63;5043596;28;20029;-35
2021/11/18 09:38:26;;;;;;;839.75;786.75;;;;;;;17.89;47.70;101624.59;5052679;28;20127;-35
2021/11/18 09:40:59;;;;;;;841.38;788.72;;;;;;;17.65;47.98;101589.13;5043301;28;20029;-35
2021/11/18 09:43:43;;;;;;;813.85;762.80;;;;;;;17.86;47.79;101615.91;5069159;28;20032;-35
2021/11/18 09:46:36;;;;;;;814.17;763.25;;;;;;;17.86;47.67;101615.91;5050633;28;20025;-36
2021/11/18 09:49:25;;;;;;;850.42;796.15;;;;;;;17.84;47.79;101624.94;5053795;28;20095;-35
2021/11/18 09:51:54;;;;;;;823.38;772.03;;;;;;;17.87;47.69;101622.06;5069189;28;20028;-35
2021/11/18 09:54:41;;;;;;;853.97;800.42;;;;;;;17.82;47.90;101633.03;5051552;28;20040;-35
2021/11/18 09:57:25;;;;;;;843.00;789.53;;;;;;;17.91;47.24;101635.94;5051621;28;20039;-35
2021/11/18 10:00:28;;;;;;;826.40;774.50;;;;;;;17.80;47.60;101621.66;5053303;28;20028;-35
2021/11/18 10:03:31;;;;;;;830.67;778.42;;;;;;;17.81;47.70;101630.47;5067271;28;20029;-35
2021/11/18 10:06:24;;;;;;;817.78;767.13;;;;;;;17.80;47.81;101631.44;5043838;28;20054;-35
2021/11/18 10:08:58;;;;;;;842.50;788.97;;;;;;;17.74;47.89;101616.81;5045007;28;20459;-35
2021/11/18 10:11:46;;;;;;;824.65;772.28;;;;;;;17.74;48.05;101624.78;5048140;28;20020;-35
2021/11/18 10:14:25;;;;;;;834.78;782.50;;;;;;;17.74;47.88;101627.44;5067270;28;20336;-36
2021/11/18 10:16:56;;;;;;;829.25;777.60;;;;;;;17.75;47.74;101634.44;5052240;28;20033;-35
2021/11/18 10:19:31;;;;;;;825.88;774.35;;;;;;;17.75;47.89;101631.78;5066921;28;20037;-35
2021/11/18 10:21:59;;;;;;;845.42;792.63;;;;;;;17.38;47.66;101549.59;5041605;28;20124;-35
2021/11/18 10:24:29;;;;;;;846.83;793.70;;;;;;;17.74;47.69;101615.97;5046978;28;20358;-35
2021/11/18 10:26:59;;;;;;;847.03;794.25;;;;;;;17.74;47.63;101622.13;5060013;28;20025;-35
2021/11/18 10:29:29;;;;;;;838.70;785.85;;;;;;;17.74;47.82;101623.94;5048510;28;20029;-35
2021/11/18 10:32:12;;;;;;;858.85;805.28;;;;;;;17.71;48.02;101608.22;5045172;28;20040;-35
2021/11/18 10:34:57;;;;;;;860.47;806.35;;;;;;;17.69;47.88;101611.00;5050670;28;20167;-35
2021/11/18 10:37:27;;;;;;;823.28;771.75;;;;;;;17.68;47.80;101609.31;5035680;28;20022;-35
2021/11/18 10:39:56;;;;;;;884.70;828.47;;;;;;;17.54;47.97;101604.19;5036500;28;20033;-35
2021/11/18 10:42:33;;;;;;;822.72;771.00;;;;;;;17.66;47.95;101624.53;5045541;28;20023;-35
2021/11/18 10:45:29;;;;;;;821.55;769.80;;;;;;;17.66;48.00;101624.53;5069218;28;20343;-35
2021/11/18 10:47:58;;;;;;;807.13;756.78;;;;;;;17.68;47.68;101628.75;5047381;28;20458;-35
2021/11/18 10:50:54;;;;;;;842.65;789.85;;;;;;;17.66;47.61;101614.75;5051711;28;20052;-35
2021/11/18 10:53:51;;;;;;;831.42;779.03;;;;;;;17.68;47.66;101615.47;5066154;28;20029;-35
2021/11/18 10:56:20;;;;;;;813.75;762.30;;;;;;;17.65;47.84;101618.34;5050294;28;20437;-35
2021/11/18 10:59:07;;;;;;;826.60;774.63;;;;;;;17.63;47.88;101614.13;5034699;28;20441;-35
2021/11/18 11:01:37;;;;;;;827.85;775.78;;;;;;;17.59;47.84;101613.50;5054947;28;20455;-35